createdAt,value
2023-04-04T22:42:52.640Z,877.51
2023-04-04T22:43:52.598Z,865.03
2023-04-04T22:44:52.597Z,845.41
2023-04-04T22:45:52.616Z,828.98
2023-04-04T22:46:52.585Z,806.67
2023-04-04T22:47:52.655Z,793.74
2023-04-04T22:48:52.553Z,777.14
2023-04-04T22:49:52.531Z,766.65
2023-04-04T22:50:52.523Z,759.06
2023-04-04T22:51:52.514Z,754.33
2023-04-04T22:52:52.516Z,754.01
2023-04-04T22:53:52.516Z,748.27
2023-04-04T22:54:52.492Z,750.16
2023-04-04T22:55:52.479Z,753.18
2023-04-04T22:56:52.464Z,755.05
2023-04-04T22:57:52.448Z,753.10
2023-04-04T22:58:52.514Z,756.36
2023-04-04T22:59:52.429Z,763.68
2023-04-04T23:00:52.470Z,767.54
2023-04-04T23:01:52.427Z,768.18
2023-04-04T23:02:52.435Z,773.93
2023-04-04T23:03:52.451Z,769.19
2023-04-04T23:04:52.405Z,763.81
2023-04-04T23:05:52.359Z,764.11
2023-04-04T23:06:52.363Z,765.89
2023-04-04T23:07:52.340Z,765.03
2023-04-04T23:08:52.340Z,774.33
2023-04-04T23:09:52.337Z,770.27
2023-04-04T23:10:52.310Z,771.08
2023-04-04T23:11:52.293Z,775.31
2023-04-04T23:12:52.289Z,770.93
2023-04-04T23:13:52.284Z,772.10
2023-04-04T23:14:52.296Z,772.72
2023-04-04T23:15:52.353Z,778.78
2023-04-04T23:16:52.263Z,785.43
2023-04-04T23:17:52.267Z,785.72
2023-04-04T23:18:52.219Z,786.25
2023-04-04T23:19:52.206Z,778.78
2023-04-04T23:20:52.213Z,776.06
2023-04-04T23:21:52.231Z,776.75
2023-04-04T23:22:52.185Z,778.99
2023-04-04T23:23:52.196Z,782.96
2023-04-04T23:24:52.179Z,781.63
2023-04-04T23:25:52.136Z,786.55
2023-04-04T23:26:52.132Z,786.91
2023-04-04T23:27:52.129Z,788.22
2023-04-04T23:28:52.114Z,790.81
2023-04-04T23:29:52.133Z,793.74
2023-04-04T23:30:52.132Z,793.76
2023-04-04T23:31:52.072Z,790.87
2023-04-04T23:32:52.143Z,782.38
2023-04-04T23:33:52.052Z,789.01
2023-04-04T23:34:52.048Z,790.09
2023-04-04T23:35:52.058Z,785.02
2023-04-04T23:36:52.025Z,786.91
2023-04-04T23:37:52.020Z,783.18
2023-04-04T23:38:52.004Z,780.68
2023-04-04T23:39:51.990Z,773.87
2023-04-04T23:40:51.990Z,769.34
2023-04-04T23:41:51.968Z,769.31
2023-04-04T23:42:51.969Z,767.35
2023-04-04T23:43:51.941Z,771.37
2023-04-04T23:44:51.949Z,771.88
2023-04-04T23:45:51.922Z,771.83
2023-04-04T23:46:52.026Z,771.58
2023-04-04T23:47:51.958Z,774.49
2023-04-04T23:48:51.896Z,783.20
2023-04-04T23:49:51.881Z,787.39
2023-04-04T23:50:51.875Z,785.60
2023-04-04T23:51:52.572Z,783.93
2023-04-04T23:52:51.858Z,789.44
2023-04-04T23:53:51.841Z,791.87
2023-04-04T23:54:51.840Z,790.56
2023-04-04T23:55:51.829Z,792.92
2023-04-04T23:56:51.803Z,796.78
2023-04-04T23:57:51.794Z,792.81
2023-04-04T23:58:51.850Z,799.47
2023-04-04T23:59:51.767Z,798.14
